createdAt,value
2022-09-27T03:02:37.455Z,99951.45
2022-09-27T03:05:09.817Z,99946.02
2022-09-27T03:07:39.758Z,99952.06
2022-09-27T03:10:08.453Z,99945.88
2022-09-27T03:12:36.601Z,99942.42
2022-09-27T03:15:05.033Z,99940.98
2022-09-27T03:20:12.301Z,99952.06
2022-09-27T03:22:42.030Z,99950.76
2022-09-27T03:25:10.416Z,99956.15
2022-09-27T03:27:38.950Z,99957.40
2022-09-27T03:30:08.966Z,99949.55
2022-09-27T03:32:43.306Z,99957.30
2022-09-27T03:35:16.329Z,99963.54
2022-09-27T03:37:44.610Z,99945.88
2022-09-27T03:40:13.892Z,99950.30
2022-09-27T03:42:47.510Z,99940.30
2022-09-27T03:45:17.657Z,99946.70
2022-09-27T03:47:46.712Z,99948.66
2022-09-27T03:50:17.240Z,99953.24
2022-09-27T03:52:45.893Z,99964.46
2022-09-27T03:55:14.578Z,99954.98
2022-09-27T03:57:50.970Z,99961.58
2022-09-27T04:00:20.475Z,99968.05
2022-09-27T04:02:49.972Z,99967.47
2022-09-27T04:05:18.315Z,99961.38
2022-09-27T04:07:50.692Z,99958.05
2022-09-27T04:10:21.489Z,99973.41
2022-09-27T04:12:49.569Z,99968.97
2022-09-27T04:15:19.118Z,99977.38
2022-09-27T04:17:54.925Z,99976.55
2022-09-27T04:20:25.431Z,99990.32
2022-09-27T04:23:05.331Z,99995.48
2022-09-27T04:25:34.880Z,99995.13
2022-09-27T04:28:03.852Z,99995.88
2022-09-27T04:31:01.819Z,99990.98
2022-09-27T04:33:30.315Z,99998.56
2022-09-27T04:36:16.714Z,99999.28
2022-09-27T04:38:45.655Z,99998.04
2022-09-27T04:41:23.348Z,100003.30
2022-09-27T04:43:56.791Z,100005.23
2022-09-27T04:47:01.572Z,100013.34
2022-09-27T04:49:29.876Z,100020.63
2022-09-27T04:52:14.066Z,100032.14
2022-09-27T04:54:45.027Z,100022.59
2022-09-27T04:57:13.626Z,100017.88
2022-09-27T04:59:44.012Z,100024.78
2022-09-27T05:02:12.470Z,100026.38
2022-09-27T05:04:43.159Z,100025.89
2022-09-27T05:07:11.983Z,100025.34
2022-09-27T05:09:40.280Z,100028.02
2022-09-27T05:12:10.068Z,100022.20
2022-09-27T05:14:38.690Z,100021.35
2022-09-27T05:17:09.343Z,100040.51
2022-09-27T05:19:40.835Z,100031.84
2022-09-27T05:22:09.103Z,100033.51
2022-09-27T05:24:37.481Z,100043.65
2022-09-27T05:27:09.573Z,100038.77
2022-09-27T05:29:38.303Z,100062.41
2022-09-27T05:32:07.229Z,100065.20
2022-09-27T05:34:35.450Z,100057.55
2022-09-27T05:37:03.409Z,100061.59
2022-09-27T05:39:32.257Z,100075.04
2022-09-27T05:42:00.193Z,100081.90
2022-09-27T05:44:28.038Z,100079.88
2022-09-27T05:46:57.206Z,100084.02
2022-09-27T05:49:25.121Z,100087.16
2022-09-27T05:51:52.873Z,100096.09
2022-09-27T05:54:20.749Z,100084.78
2022-09-27T05:56:50.091Z,100086.45
2022-09-27T05:59:18.305Z,100092.17
2022-09-27T06:01:46.143Z,100096.19
2022-09-27T06:04:14.115Z,100092.49
2022-09-27T06:06:42.005Z,100096.59
2022-09-27T06:09:13.694Z,100106.78
2022-09-27T06:11:44.510Z,100101.88
2022-09-27T06:14:14.397Z,100111.30
2022-09-27T06:16:42.300Z,100098.67
2022-09-27T06:19:10.390Z,100111.03
2022-09-27T06:21:38.758Z,100106.13
2022-09-27T06:30:23.698Z,100127.32
2022-09-27T06:33:00.038Z,100136.70
2022-09-27T06:35:35.986Z,100132.62
2022-09-27T06:38:11.635Z,100126.70
2022-09-27T06:41:11.216Z,100131.63
2022-09-27T06:43:44.165Z,100128.33
2022-09-27T06:46:14.675Z,100133.56
2022-09-27T06:51:35.884Z,100146.87
2022-09-27T06:54:03.969Z,100147.66
2022-09-27T06:56:31.869Z,100144.35
2022-09-27T06:59:18.258Z,100161.55
2022-09-27T07:01:46.664Z,100160.38
2022-09-27T07:04:14.769Z,100168.84
2022-09-27T07:06:42.630Z,100164.49
2022-09-27T07:09:10.678Z,100170.70
2022-09-27T07:11:38.787Z,100162.59
2022-09-27T07:14:07.637Z,100155.70
2022-09-27T07:16:36.125Z,100179.34
2022-09-27T07:19:04.123Z,100175.67
2022-09-27T07:21:32.405Z,100181.04
2022-09-27T07:24:00.410Z,100178.62
2022-09-27T07:26:28.439Z,100190.42
2022-09-27T07:28:57.840Z,100192.32
2022-09-27T07:31:25.886Z,100208.21
2022-09-27T07:33:54.227Z,100205.69
2022-09-27T07:36:22.499Z,100215.80
2022-09-27T07:38:55.429Z,100227.14
2022-09-27T07:41:23.353Z,100224.75
2022-09-27T07:43:51.321Z,100227.95
2022-09-27T07:46:19.294Z,100233.19
2022-09-27T07:48:51.858Z,100231.20
2022-09-27T07:51:22.316Z,100236.42
2022-09-27T07:53:50.185Z,100244.50
2022-09-27T07:56:18.105Z,100255.48
2022-09-27T07:58:46.227Z,100260.33
2022-09-27T08:01:14.251Z,100262.02
2022-09-27T08:03:42.249Z,100263.20
2022-09-27T08:06:10.291Z,100264.77
2022-09-27T08:08:38.711Z,100266.44
2022-09-27T08:11:16.833Z,100265.62
2022-09-27T08:13:44.782Z,100272.16
2022-09-27T08:16:13.012Z,100273.93
2022-09-27T08:18:41.161Z,100270.49
2022-09-27T08:21:09.194Z,100279.29
2022-09-27T08:23:38.256Z,100280.14
2022-09-27T08:26:06.393Z,100284.29
2022-09-27T08:28:34.729Z,100289.52
2022-09-27T08:31:04.722Z,100293.74
2022-09-27T08:33:35.743Z,100291.68
2022-09-27T08:36:04.950Z,100289.95
2022-09-27T08:38:33.222Z,100291.62
2022-09-27T08:41:06.358Z,100300.80
2022-09-27T08:43:43.142Z,100309.63
2022-09-27T08:46:30.430Z,100296.81
2022-09-27T08:49:32.120Z,100305.28
2022-09-27T08:52:01.050Z,100316.43
2022-09-27T08:54:32.688Z,100314.63
2022-09-27T08:57:05.661Z,100325.81
2022-09-27T08:59:42.661Z,100331.67
2022-09-27T09:02:23.081Z,100329.15
2022-09-27T09:04:57.653Z,100334.88
2022-09-27T09:07:25.494Z,100326.41
2022-09-27T09:09:59.278Z,100332.68
2022-09-27T09:12:50.038Z,100329.58
2022-09-27T09:15:24.249Z,100323.43
2022-09-27T09:18:11.619Z,100332.59
2022-09-27T09:21:04.875Z,100320.95
2022-09-27T09:24:18.235Z,100321.96
2022-09-27T09:27:01.027Z,100318.69
2022-09-27T09:30:03.868Z,100320.09
2022-09-27T09:32:50.481Z,100316.10
2022-09-27T09:35:33.995Z,100315.58
2022-09-27T09:38:07.918Z,100313.00
2022-09-27T09:40:38.456Z,100311.04
2022-09-27T09:43:17.630Z,100304.89
2022-09-27T09:45:54.542Z,100308.59
2022-09-27T09:48:44.938Z,100318.13
2022-09-27T09:51:23.699Z,100304.79
2022-09-27T09:53:56.383Z,100308.55
2022-09-27T09:56:25.971Z,100305.71
2022-09-27T09:58:59.490Z,100297.50
2022-09-27T10:01:43.572Z,100300.70
2022-09-27T10:04:17.475Z,100305.15
2022-09-27T10:06:45.514Z,100306.43
2022-09-27T10:09:15.758Z,100306.16
2022-09-27T10:11:45.729Z,100299.40
2022-09-27T10:14:15.474Z,100300.45
2022-09-27T10:16:49.084Z,100290.47
2022-09-27T10:19:28.483Z,100292.11
2022-09-27T10:21:56.479Z,100288.87
2022-09-27T10:24:26.472Z,100282.66
2022-09-27T10:26:55.864Z,100281.16
2022-09-27T10:29:34.871Z,100278.34
2022-09-27T10:32:06.003Z,100266.77
2022-09-27T10:34:42.121Z,100267.52
2022-09-27T10:37:18.700Z,100266.57
2022-09-27T10:39:47.714Z,100264.94
2022-09-27T10:42:40.124Z,100272.98
2022-09-27T10:45:34.978Z,100262.35
2022-09-27T10:48:03.737Z,100265.62
2022-09-27T10:53:26.130Z,100259.28
2022-09-27T10:55:54.222Z,100259.34
2022-09-27T10:58:34.692Z,100258.23
2022-09-27T11:01:04.755Z,100248.49
2022-09-27T11:03:34.423Z,100260.72
2022-09-27T11:06:02.584Z,100274.87
2022-09-27T11:08:58.677Z,100280.27
2022-09-27T11:11:27.736Z,100285.14
2022-09-27T11:13:59.293Z,100288.34
2022-09-27T11:16:30.813Z,100293.05
2022-09-27T11:19:16.981Z,100285.80
2022-09-27T11:21:53.665Z,100286.16
2022-09-27T11:24:27.757Z,100284.23
2022-09-27T11:27:24.897Z,100292.79
2022-09-27T11:30:04.690Z,100271.48
2022-09-27T11:33:17.666Z,100278.41
2022-09-27T11:35:50.975Z,100272.59
2022-09-27T11:38:51.037Z,100280.07
2022-09-27T11:41:36.127Z,100294.63
2022-09-27T11:44:13.088Z,100279.19
2022-09-27T11:46:42.229Z,100267.87
2022-09-27T11:49:23.772Z,100268.08
2022-09-27T11:52:02.176Z,100243.06
2022-09-27T11:54:42.879Z,100226.84
2022-09-27T11:57:19.870Z,100217.49
2022-09-27T11:59:54.665Z,100218.84
2022-09-27T12:02:40.720Z,100211.28
2022-09-27T12:05:22.337Z,100209.58
2022-09-27T12:25:07.908Z,100197.88
2022-09-27T12:27:48.666Z,100203.83
2022-09-27T12:30:16.668Z,100197.48
2022-09-27T12:33:05.994Z,100195.69
2022-09-27T12:35:42.755Z,100190.88
2022-09-27T12:38:53.160Z,100179.37
2022-09-27T12:41:22.277Z,100182.15
2022-09-27T12:43:54.677Z,100179.96
2022-09-27T12:46:32.973Z,100181.79
2022-09-27T12:49:27.033Z,100175.71
2022-09-27T12:52:05.046Z,100179.86
2022-09-27T12:54:54.085Z,100174.07
2022-09-27T12:57:46.415Z,100168.58
2022-09-27T13:00:24.706Z,100182.02
2022-09-27T13:03:15.755Z,100163.94
2022-09-27T13:05:56.759Z,100162.53
2022-09-27T13:08:54.343Z,100179.56
2022-09-27T13:11:45.382Z,100165.24
2022-09-27T13:14:26.506Z,100158.22
2022-09-27T13:16:54.288Z,100158.12
2022-09-27T13:19:37.333Z,100151.52
2022-09-27T13:22:06.342Z,100160.93
2022-09-27T13:24:40.495Z,100162.01
2022-09-27T13:27:23.593Z,100167.89
2022-09-27T13:29:51.824Z,100164.98
2022-09-27T13:32:24.831Z,100160.93
2022-09-27T13:34:57.780Z,100156.05
2022-09-27T13:37:47.962Z,100161.45
2022-09-27T13:40:34.934Z,100157.70
2022-09-27T13:43:14.688Z,100166.75
2022-09-27T13:45:44.946Z,100159.75
2022-09-27T13:48:18.149Z,100154.00
2022-09-27T13:50:53.275Z,100150.73
2022-09-27T13:53:33.083Z,100148.27
2022-09-27T13:56:00.799Z,100145.34
2022-09-27T13:58:47.257Z,100143.17
2022-09-27T14:01:35.418Z,100149.71
2022-09-27T14:04:12.378Z,100135.98
2022-09-27T14:06:56.132Z,100151.05
2022-09-27T14:09:33.145Z,100148.93
2022-09-27T14:12:01.993Z,100139.22
2022-09-27T14:14:31.853Z,100137.09
2022-09-27T14:17:06.485Z,100154.84
2022-09-27T14:19:51.816Z,100152.72
2022-09-27T14:22:24.188Z,100141.57
2022-09-27T14:24:56.047Z,100145.27
2022-09-27T14:27:30.855Z,100143.30
2022-09-27T14:30:09.366Z,100148.63
2022-09-27T14:32:51.361Z,100158.64
2022-09-27T14:35:42.207Z,100156.97
2022-09-27T14:38:36.633Z,100152.52
2022-09-27T14:41:11.668Z,100161.75
2022-09-27T14:43:44.471Z,100161.59
2022-09-27T14:46:29.115Z,100167.01
2022-09-27T14:48:57.439Z,100168.55
2022-09-27T14:51:32.491Z,100180.71
2022-09-27T14:54:02.408Z,100188.82
2022-09-27T14:56:38.669Z,100183.33
2022-09-27T14:59:07.627Z,100188.95
2022-09-27T15:01:36.283Z,100192.19
2022-09-27T15:04:06.372Z,100200.95
2022-09-27T15:06:36.416Z,100213.05
2022-09-27T15:09:05.085Z,100222.53
2022-09-27T15:11:34.428Z,100226.29
2022-09-27T15:14:04.246Z,100230.31
2022-09-27T15:16:33.095Z,100228.71
2022-09-27T15:19:08.303Z,100240.31
2022-09-27T15:21:48.451Z,100250.98
2022-09-27T15:24:47.536Z,100251.17
2022-09-27T15:27:23.276Z,100246.95
2022-09-27T15:29:57.827Z,100234.53
2022-09-27T15:32:30.337Z,100244.40
2022-09-27T15:34:58.341Z,100239.50
2022-09-27T15:37:49.165Z,100242.80
2022-09-27T15:40:28.582Z,100244.50
2022-09-27T15:43:00.590Z,100251.40
2022-09-27T15:45:32.628Z,100245.61
2022-09-27T15:48:12.147Z,100245.05
2022-09-27T15:50:45.134Z,100246.46
2022-09-27T15:53:34.671Z,100247.67
2022-09-27T15:56:03.167Z,100249.70
2022-09-27T15:58:35.686Z,100252.38
2022-09-27T16:01:06.764Z,100252.28
2022-09-27T16:03:37.081Z,100249.27
2022-09-27T16:06:05.205Z,100253.52
2022-09-27T16:08:40.607Z,100252.22
2022-09-27T16:11:10.486Z,100244.73
2022-09-27T16:13:38.203Z,100248.23
2022-09-27T16:16:13.827Z,100255.09
2022-09-27T16:18:41.868Z,100255.42
2022-09-27T16:21:11.033Z,100260.72
2022-09-27T16:23:38.876Z,100259.12
2022-09-27T16:26:07.213Z,100269.71
2022-09-27T16:28:45.752Z,100270.92
2022-09-27T16:31:13.575Z,100277.46
2022-09-27T16:33:44.294Z,100276.74
2022-09-27T16:36:17.156Z,100284.00
2022-09-27T16:38:44.920Z,100286.68
2022-09-27T16:41:12.597Z,100281.61
2022-09-27T16:43:50.708Z,100287.30
2022-09-27T16:46:33.113Z,100264.05
2022-09-27T16:49:01.282Z,100256.56
2022-09-27T16:52:07.500Z,100255.39
2022-09-27T16:54:35.319Z,100256.47
2022-09-27T16:57:03.161Z,100258.23
2022-09-27T16:59:30.928Z,100265.85
2022-09-27T17:01:58.934Z,100263.37
2022-09-27T17:04:29.693Z,100271.73
2022-09-27T17:06:58.224Z,100275.34
2022-09-27T17:09:32.128Z,100270.52
2022-09-27T17:12:00.241Z,100275.76
2022-09-27T17:14:33.454Z,100274.13
2022-09-27T17:17:01.260Z,100281.88
2022-09-27T17:19:29.623Z,100288.15
2022-09-27T17:22:02.472Z,100282.98
2022-09-27T17:24:30.313Z,100294.49
2022-09-27T17:26:58.262Z,100292.37
2022-09-27T17:29:26.315Z,100293.38
2022-09-27T17:31:54.140Z,100292.27
2022-09-27T17:34:22.802Z,100296.42
2022-09-27T17:36:52.839Z,100295.21
2022-09-27T17:39:24.499Z,100287.86
2022-09-27T17:41:52.342Z,100292.63
2022-09-27T17:44:20.400Z,100285.63
2022-09-27T17:46:48.287Z,100282.30
2022-09-27T17:49:35.005Z,100285.99
2022-09-27T17:52:09.389Z,100289.66
2022-09-27T17:54:37.525Z,100282.30
2022-09-27T17:57:05.268Z,100278.60
2022-09-27T17:59:34.420Z,100282.66
2022-09-27T18:02:02.280Z,100283.84
2022-09-27T18:04:30.244Z,100283.84
2022-09-27T18:06:58.474Z,100279.81
2022-09-27T18:09:26.210Z,100288.37
2022-09-27T18:11:53.963Z,100292.50
2022-09-27T18:14:23.368Z,100291.48
2022-09-27T18:16:51.180Z,100289.55
2022-09-27T18:19:18.929Z,100287.17
2022-09-27T18:21:46.815Z,100288.70
2022-09-27T18:24:15.273Z,100294.91
2022-09-27T18:26:43.287Z,100297.77
2022-09-27T18:29:15.286Z,100283.51
2022-09-27T18:31:48.246Z,100303.09
2022-09-27T18:34:17.567Z,100293.71
2022-09-27T18:36:45.700Z,100295.73
2022-09-27T18:39:17.028Z,100299.43
2022-09-27T18:41:44.925Z,100300.87
2022-09-27T18:44:14.420Z,100310.35
2022-09-27T18:46:42.247Z,100303.35
2022-09-27T18:49:14.352Z,100308.39
2022-09-27T18:51:44.982Z,100298.52
2022-09-27T18:54:22.540Z,100309.44
2022-09-27T18:56:51.417Z,100300.77
2022-09-27T18:59:25.058Z,100295.05
2022-09-27T19:01:53.024Z,100299.46
2022-09-27T19:04:27.012Z,100293.64
2022-09-27T19:06:59.711Z,100275.59
2022-09-27T19:09:28.172Z,100282.59
2022-09-27T19:11:56.007Z,100281.52
2022-09-27T19:14:24.479Z,100295.90
2022-09-27T19:16:52.362Z,100293.97
2022-09-27T19:19:20.666Z,100294.10
2022-09-27T19:21:48.683Z,100294.10
2022-09-27T19:24:16.850Z,100294.10
2022-09-27T19:26:44.751Z,100296.26
2022-09-27T19:29:12.856Z,100289.82
2022-09-27T19:31:40.720Z,100292.20
2022-09-27T19:34:08.621Z,100285.99
2022-09-27T19:36:36.403Z,100297.30
2022-09-27T19:39:04.480Z,100296.00
2022-09-27T19:41:32.254Z,100291.26
2022-09-27T19:44:00.203Z,100289.33
2022-09-27T19:46:28.017Z,100290.05
2022-09-27T19:48:57.253Z,100292.53
2022-09-27T19:51:26.451Z,100287.92
2022-09-27T19:53:54.453Z,100284.23
2022-09-27T19:56:22.290Z,100291.26
2022-09-27T19:58:50.119Z,100294.46
2022-09-27T20:01:22.310Z,100301.36
2022-09-27T20:03:51.249Z,100300.54
2022-09-27T20:06:20.143Z,100307.77
2022-09-27T20:08:49.013Z,100305.88
2022-09-27T20:11:18.343Z,100303.62
2022-09-27T20:13:46.259Z,100299.56
2022-09-27T20:16:21.761Z,100300.51
2022-09-27T20:18:53.516Z,100294.07
2022-09-27T20:21:22.051Z,100300.51
2022-09-27T20:23:50.823Z,100298.13
2022-09-27T20:26:19.931Z,100295.24
2022-09-27T20:28:51.847Z,100305.71
2022-09-27T20:31:21.641Z,100290.24
2022-09-27T20:33:51.874Z,100283.28
2022-09-27T20:36:23.926Z,100292.95
2022-09-27T20:39:01.159Z,100294.30
2022-09-27T20:41:31.001Z,100293.19
2022-09-27T20:44:01.402Z,100284.91
2022-09-27T20:46:29.201Z,100288.15
2022-09-27T20:48:58.426Z,100288.97
2022-09-27T20:51:27.188Z,100281.48
2022-09-27T20:53:55.042Z,100291.13
2022-09-27T20:56:26.541Z,100300.38
2022-09-27T20:58:55.385Z,100297.93
2022-09-27T21:01:23.783Z,100296.72
2022-09-27T21:03:59.073Z,100297.93
2022-09-27T21:06:28.224Z,100292.56
2022-09-27T21:08:56.177Z,100290.18
2022-09-27T21:11:23.987Z,100282.92
2022-09-27T21:13:52.221Z,100281.28
2022-09-27T21:16:29.961Z,100272.00
2022-09-27T21:18:57.978Z,100263.98
2022-09-27T21:21:25.887Z,100267.23
2022-09-27T21:23:58.558Z,100275.56
2022-09-27T21:26:28.267Z,100257.71
2022-09-27T21:28:57.479Z,100270.79
2022-09-27T21:31:30.584Z,100264.70
2022-09-27T21:34:00.233Z,100257.71
2022-09-27T21:36:29.570Z,100251.14
2022-09-27T21:38:57.483Z,100248.42
2022-09-27T21:41:26.781Z,100257.45
2022-09-27T21:43:54.554Z,100249.50
2022-09-27T21:46:24.529Z,100248.30
2022-09-27T21:48:54.288Z,100240.12
2022-09-27T21:51:26.304Z,100235.70
2022-09-27T21:53:58.347Z,100231.45
2022-09-27T21:56:32.370Z,100225.38
2022-09-27T21:59:00.138Z,100222.89
2022-09-27T22:01:32.112Z,100223.34
2022-09-27T22:04:00.018Z,100212.39
2022-09-27T22:06:29.463Z,100211.58
2022-09-27T22:08:59.164Z,100218.60
2022-09-27T22:11:31.857Z,100210.37
2022-09-27T22:13:59.806Z,100213.96
2022-09-27T22:16:36.390Z,100206.93
2022-09-27T22:19:04.258Z,100195.42
2022-09-27T22:21:36.258Z,100193.88
2022-09-27T22:24:08.547Z,100192.58
2022-09-27T22:26:37.887Z,100194.25
2022-09-27T22:29:06.474Z,100192.58
2022-09-27T22:31:34.254Z,100198.76
2022-09-27T22:34:03.369Z,100202.45
2022-09-27T22:36:31.518Z,100195.52
2022-09-27T22:38:59.199Z,100186.98
2022-09-27T22:41:26.997Z,100178.06
2022-09-27T22:43:54.725Z,100181.27
2022-09-27T22:46:22.657Z,100171.30
2022-09-27T22:48:53.554Z,100149.48
2022-09-27T22:51:21.341Z,100144.12
2022-09-27T22:53:49.096Z,100140.92
2022-09-27T22:56:20.885Z,100133.92
2022-09-27T22:58:49.175Z,100142.39
2022-09-27T23:01:23.766Z,100135.46
2022-09-27T23:03:52.695Z,100135.00
2022-09-27T23:06:21.252Z,100123.95
2022-09-27T23:08:49.040Z,100126.44
2022-09-27T23:11:20.940Z,100128.95
2022-09-27T23:13:49.278Z,100135.46
2022-09-27T23:16:25.463Z,100122.05
2022-09-27T23:18:54.666Z,100116.01
2022-09-27T23:21:24.473Z,100118.75
2022-09-27T23:23:53.947Z,100123.72
2022-09-27T23:26:26.346Z,100112.31
2022-09-27T23:29:00.935Z,100107.05
2022-09-27T23:31:30.868Z,100102.30
2022-09-27T23:33:59.312Z,100094.91
2022-09-27T23:36:28.178Z,100094.91
2022-09-27T23:38:56.812Z,100091.97
2022-09-27T23:41:24.549Z,100090.50
2022-09-27T23:43:52.339Z,100081.48
2022-09-27T23:46:20.279Z,100082.33
2022-09-27T23:48:48.122Z,100082.33
2022-09-27T23:51:15.851Z,100073.80
2022-09-27T23:53:44.022Z,100075.04
2022-09-27T23:56:16.268Z,100060.91
2022-09-27T23:58:45.375Z,100062.55
